createdAt,value
2018-03-16T00:00:48.672Z,79.31
2018-03-16T00:01:48.657Z,79.41
2018-03-16T00:02:48.635Z,79.5
2018-03-16T00:03:48.885Z,79.41
2018-03-16T00:04:48.593Z,79.79
2018-03-16T00:05:48.574Z,79.69
2018-03-16T00:06:48.818Z,79.03
2018-03-16T00:07:48.535Z,79.5
2018-03-16T00:08:48.519Z,79.31
2018-03-16T00:09:48.780Z,78.64
2018-03-16T00:10:48.480Z,78.17
2018-03-16T00:11:48.727Z,79.22
2018-03-16T00:12:48.703Z,78.45
2018-03-16T00:13:48.419Z,78.36
2018-03-16T00:14:48.676Z,76.65
2018-03-16T00:15:48.648Z,78.08
2018-03-16T00:16:48.632Z,76.27
2018-03-16T00:17:48.345Z,76.37
2018-03-16T00:18:48.328Z,76.65
2018-03-16T00:19:48.579Z,77.03
2018-03-16T00:20:48.290Z,76.75
2018-03-16T00:21:48.532Z,77.12
2018-03-16T00:22:48.516Z,76.65
2018-03-16T00:23:48.232Z,77.03
2018-03-16T00:24:48.213Z,75.89
2018-03-16T00:25:48.461Z,76.08
2018-03-16T00:26:48.446Z,75.79
2018-03-16T00:27:48.416Z,75.42
2018-03-16T00:28:48.397Z,75.6
2018-03-16T00:29:48.380Z,75.51
2018-03-16T00:30:48.095Z,74.56
2018-03-16T00:31:48.339Z,74.85
2018-03-16T00:32:48.055Z,74.27
2018-03-16T00:33:48.036Z,73.9
2018-03-16T00:34:48.283Z,74.18
2018-03-16T00:35:48.266Z,74.18
2018-03-16T00:36:48.246Z,74.27
2018-03-16T00:37:47.961Z,73.8
2018-03-16T00:38:48.205Z,73.9
2018-03-16T00:39:47.922Z,73.9
2018-03-16T00:40:48.165Z,73.23
2018-03-16T00:41:48.145Z,73.23
2018-03-16T00:42:47.865Z,73.23
2018-03-16T00:43:47.847Z,73.61
2018-03-16T00:44:48.088Z,73.71
2018-03-16T00:45:48.072Z,73.23
2018-03-16T00:46:48.056Z,73.14
2018-03-16T00:47:47.770Z,73.23
2018-03-16T00:48:48.016Z,72.56
2018-03-16T00:49:47.999Z,73.61
2018-03-16T00:50:47.710Z,73.71
2018-03-16T00:51:47.966Z,73.71
2018-03-16T00:52:47.936Z,72.95
2018-03-16T00:53:47.920Z,72.28
2018-03-16T00:54:47.631Z,72.28
2018-03-16T00:55:47.886Z,73.04
2018-03-16T00:56:47.591Z,72.85
2018-03-16T00:57:47.839Z,72.56
2018-03-16T00:58:47.554Z,72.38
2018-03-16T00:59:47.805Z,72.47
2018-03-16T01:00:47.780Z,72.75
2018-03-16T01:01:47.761Z,72.66
2018-03-16T01:02:47.477Z,72.75
2018-03-16T01:03:47.457Z,72.15
2018-03-16T01:04:47.439Z,72.34
2018-03-16T01:05:47.418Z,72.38
2018-03-16T01:06:47.399Z,72.28
2018-03-16T01:07:47.379Z,72.38
2018-03-16T01:08:47.626Z,72.34
2018-03-16T01:09:47.341Z,72.85
2018-03-16T01:10:47.588Z,72.44
2018-03-16T01:11:47.300Z,72.91
2018-03-16T01:12:47.283Z,72.44
2018-03-16T01:13:47.526Z,73
2018-03-16T01:14:47.506Z,72.44
2018-03-16T01:15:47.494Z,72.34
2018-03-16T01:16:47.202Z,70.82
2018-03-16T01:17:47.183Z,71.48
2018-03-16T01:18:47.432Z,71.3
2018-03-16T01:19:47.143Z,71.48
2018-03-16T01:20:47.392Z,70.35
2018-03-16T01:21:47.373Z,70.44
2018-03-16T01:22:47.088Z,70.54
2018-03-16T01:23:47.067Z,70.44
2018-03-16T01:24:47.316Z,70.82
2018-03-16T01:25:47.292Z,70.92
2018-03-16T01:26:47.009Z,70.63
2018-03-16T01:27:46.992Z,70.92
2018-03-16T01:28:47.232Z,70.82
2018-03-16T01:29:47.216Z,70.73
2018-03-16T01:30:46.930Z,70.92
2018-03-16T01:31:46.910Z,70.92
2018-03-16T01:32:47.158Z,70.73
2018-03-16T01:33:47.139Z,70.73
2018-03-16T01:34:46.852Z,70.35
2018-03-16T01:35:47.097Z,70.06
2018-03-16T01:36:46.812Z,70.25
2018-03-16T01:37:47.056Z,69.59
2018-03-16T01:38:46.778Z,70.15
2018-03-16T01:39:46.753Z,69.96
2018-03-16T01:40:46.999Z,69.49
2018-03-16T01:41:46.714Z,70.15
2018-03-16T01:42:46.960Z,70.06
2018-03-16T01:43:46.942Z,69.78
2018-03-16T01:44:46.656Z,70.06
2018-03-16T01:45:46.638Z,69.78
2018-03-16T01:46:46.620Z,70.15
2018-03-16T01:47:46.799Z,69.78
2018-03-16T01:48:46.577Z,69.68
2018-03-16T01:49:46.825Z,69.68
2018-03-16T01:50:46.801Z,70.35
2018-03-16T01:51:46.522Z,70.06
2018-03-16T01:52:46.498Z,70.06
2018-03-16T01:53:46.480Z,70.15
2018-03-16T01:54:46.459Z,69.59
2018-03-16T01:55:46.438Z,68.73
2018-03-16T01:56:46.687Z,68.64
2018-03-16T01:57:46.664Z,68.54
2018-03-16T01:58:46.381Z,68.64
2018-03-16T01:59:46.632Z,68.64
2018-03-16T02:00:46.351Z,69.11
2018-03-16T02:01:46.319Z,68.83
2018-03-16T02:02:46.302Z,68.07
2018-03-16T02:03:46.550Z,67.02
2018-03-16T02:04:46.533Z,67.69
2018-03-16T02:05:46.250Z,67.69
2018-03-16T02:06:46.223Z,67.69
2018-03-16T02:07:46.465Z,67.88
2018-03-16T02:08:46.453Z,68.26
2018-03-16T02:09:46.164Z,68.07
2018-03-16T02:10:46.409Z,67.97
2018-03-16T02:11:46.391Z,68.26
2018-03-16T02:12:46.104Z,68.26
2018-03-16T02:13:46.086Z,68.26
2018-03-16T02:14:46.073Z,68.07
2018-03-16T02:15:46.318Z,68.26
2018-03-16T02:16:46.028Z,67.88
2018-03-16T02:17:46.010Z,68.16
2018-03-16T02:18:46.250Z,67.88
2018-03-16T02:19:45.967Z,68.07
2018-03-16T02:20:45.944Z,67.79
2018-03-16T02:21:46.199Z,68.16
2018-03-16T02:22:46.168Z,67.97
2018-03-16T02:23:46.153Z,68.26
2018-03-16T02:24:45.866Z,68.44
2018-03-16T02:25:46.110Z,68.26
2018-03-16T02:26:45.834Z,68.26
2018-03-16T02:27:46.076Z,67.5
2018-03-16T02:28:45.788Z,67.88
2018-03-16T02:29:45.770Z,68.26
2018-03-16T02:30:46.028Z,67.31
2018-03-16T02:31:46.007Z,67.69
2018-03-16T02:32:45.711Z,67.59
2018-03-16T02:33:45.964Z,67.21
2018-03-16T02:34:45.943Z,67.5
2018-03-16T02:35:45.940Z,67.59
2018-03-16T02:36:45.630Z,68.07
2018-03-16T02:37:45.886Z,67.5
2018-03-16T02:38:45.597Z,67.4
2018-03-16T02:39:45.838Z,67.69
2018-03-16T02:40:45.554Z,67.21
2018-03-16T02:41:45.801Z,67.59
2018-03-16T02:42:45.509Z,67.59
2018-03-16T02:43:45.757Z,67.59
2018-03-16T02:44:45.471Z,67.5
2018-03-16T02:45:45.455Z,67.69
2018-03-16T02:46:45.697Z,67.5
2018-03-16T02:47:45.413Z,67.5
2018-03-16T02:48:45.396Z,68.07
2018-03-16T02:49:45.642Z,68.16
2018-03-16T02:50:45.622Z,67.69
2018-03-16T02:51:45.608Z,68.07
2018-03-16T02:52:45.589Z,67.31
2018-03-16T02:53:45.294Z,67.21
2018-03-16T02:54:45.540Z,67.21
2018-03-16T02:55:45.531Z,67.59
2018-03-16T02:56:45.502Z,67.12
2018-03-16T02:57:45.481Z,67.31
2018-03-16T02:58:45.192Z,67.02
2018-03-16T02:59:45.171Z,66.93
2018-03-16T03:00:45.157Z,67.12
2018-03-16T03:01:45.401Z,67.21
2018-03-16T03:02:45.111Z,66.83
2018-03-16T03:03:45.359Z,66.93
2018-03-16T03:04:45.074Z,66.55
2018-03-16T03:05:45.326Z,66.36
2018-03-16T03:06:45.341Z,66.08
2018-03-16T03:07:45.286Z,66.36
2018-03-16T03:08:45.254Z,65.88
2018-03-16T03:09:44.972Z,66.27
2018-03-16T03:10:44.956Z,66.36
2018-03-16T03:11:45.206Z,65.88
2018-03-16T03:12:44.912Z,65.79
2018-03-16T03:13:45.158Z,65.5
2018-03-16T03:14:45.142Z,65.69
2018-03-16T03:15:44.853Z,65.69
2018-03-16T03:16:45.094Z,65.69
2018-03-16T03:17:45.086Z,65.69
2018-03-16T03:18:44.796Z,65.41
2018-03-16T03:19:45.044Z,65.5
2018-03-16T03:20:45.020Z,65.6
2018-03-16T03:21:44.996Z,65.22
2018-03-16T03:22:44.717Z,64.94
2018-03-16T03:23:44.959Z,65.22
2018-03-16T03:24:44.939Z,65.03
2018-03-16T03:25:44.921Z,65.31
2018-03-16T03:26:44.632Z,65.22
2018-03-16T03:27:44.882Z,65.5
2018-03-16T03:28:44.859Z,65.69
2018-03-16T03:29:44.572Z,65.22
2018-03-16T03:30:44.830Z,65.41
2018-03-16T03:31:44.808Z,65.5
2018-03-16T03:32:44.776Z,65.41
2018-03-16T03:33:44.494Z,65.41
2018-03-16T03:34:44.736Z,65.6
2018-03-16T03:35:44.722Z,65.6
2018-03-16T03:36:44.432Z,65.41
2018-03-16T03:37:44.415Z,64.84
2018-03-16T03:38:44.658Z,65.12
2018-03-16T03:39:44.376Z,63.89
2018-03-16T03:40:44.352Z,64.94
2018-03-16T03:41:44.595Z,64.37
2018-03-16T03:42:44.583Z,64.84
2018-03-16T03:43:44.290Z,65.12
2018-03-16T03:44:44.538Z,64.81
2018-03-16T03:45:44.518Z,64.84
2018-03-16T03:46:44.502Z,65.12
2018-03-16T03:47:44.679Z,64.71
2018-03-16T03:48:44.198Z,64.71
2018-03-16T03:49:44.439Z,64.65
2018-03-16T03:50:44.155Z,64.71
2018-03-16T03:51:44.406Z,65.12
2018-03-16T03:52:44.140Z,64.9
2018-03-16T03:53:44.355Z,64.75
2018-03-16T03:54:44.072Z,64.56
2018-03-16T03:55:44.318Z,64.94
2018-03-16T03:56:44.301Z,64.71
2018-03-16T03:57:44.012Z,63.95
2018-03-16T03:58:44.273Z,63.42
2018-03-16T03:59:44.238Z,63.51
2018-03-16T04:00:44.222Z,63.32
2018-03-16T04:01:43.939Z,63.48
2018-03-16T04:02:44.179Z,63.29
2018-03-16T04:03:43.892Z,63.39
2018-03-16T04:04:44.143Z,63.86
2018-03-16T04:05:43.852Z,63.76
2018-03-16T04:06:44.110Z,63.86
2018-03-16T04:07:44.076Z,63.76
2018-03-16T04:08:44.069Z,63.86
2018-03-16T04:09:43.775Z,63.39
2018-03-16T04:10:43.753Z,64.05
2018-03-16T04:11:44.000Z,64.05
2018-03-16T04:12:43.712Z,63.1
2018-03-16T04:13:43.957Z,63.1
2018-03-16T04:14:43.672Z,63.67
2018-03-16T04:15:43.651Z,63.57
2018-03-16T04:16:43.897Z,63.29
2018-03-16T04:17:43.877Z,63.57
2018-03-16T04:18:43.856Z,63.39
2018-03-16T04:19:43.571Z,63.67
2018-03-16T04:20:43.813Z,63.2
2018-03-16T04:21:43.798Z,63.01
2018-03-16T04:22:43.778Z,63.2
2018-03-16T04:23:43.757Z,63.48
2018-03-16T04:24:43.739Z,63.39
2018-03-16T04:25:43.721Z,63.48
2018-03-16T04:26:43.696Z,63.48
2018-03-16T04:27:43.676Z,63.67
2018-03-16T04:28:43.390Z,63.67
2018-03-16T04:29:43.634Z,63.29
2018-03-16T04:30:43.347Z,63.67
2018-03-16T04:31:43.595Z,63.57
2018-03-16T04:32:43.309Z,63.57
2018-03-16T04:33:43.293Z,63.48
2018-03-16T04:34:43.536Z,63.01
2018-03-16T04:35:43.253Z,63.39
2018-03-16T04:36:43.230Z,63.2
2018-03-16T04:37:43.475Z,62.82
2018-03-16T04:38:43.193Z,63.1
2018-03-16T04:39:43.167Z,63.1
2018-03-16T04:40:43.414Z,63.39
2018-03-16T04:41:43.127Z,63.2
2018-03-16T04:42:43.374Z,63.2
2018-03-16T04:43:43.088Z,63.57
2018-03-16T04:44:43.064Z,63.39
2018-03-16T04:45:43.314Z,63.76
2018-03-16T04:46:43.032Z,63.76
2018-03-16T04:47:43.007Z,63.86
2018-03-16T04:48:43.255Z,63.57
2018-03-16T04:49:43.232Z,63.1
2018-03-16T04:50:43.220Z,63.67
2018-03-16T04:51:43.197Z,62.62
2018-03-16T04:52:43.168Z,63.29
2018-03-16T04:53:42.885Z,63.01
2018-03-16T04:54:42.865Z,63.29
2018-03-16T04:55:42.846Z,63.1
2018-03-16T04:56:42.824Z,63.1
2018-03-16T04:57:43.075Z,63.1
2018-03-16T04:58:43.048Z,63.29
2018-03-16T04:59:43.029Z,63.67
2018-03-16T05:00:43.010Z,63.29
2018-03-16T05:01:42.984Z,63.48
2018-03-16T05:02:42.967Z,63.39
2018-03-16T05:03:42.945Z,63.29
2018-03-16T05:04:42.928Z,63.67
2018-03-16T05:05:42.908Z,63.01
2018-03-16T05:06:42.889Z,63.29
2018-03-16T05:07:42.870Z,63.39
2018-03-16T05:08:42.844Z,63.2
2018-03-16T05:09:42.559Z,63.48
2018-03-16T05:10:42.808Z,63.95
2018-03-16T05:11:42.520Z,63.67
2018-03-16T05:12:42.767Z,63.86
2018-03-16T05:13:42.745Z,63.67
2018-03-16T05:14:42.723Z,63.39
2018-03-16T05:15:42.481Z,63.01
2018-03-16T05:16:42.689Z,63.57
2018-03-16T05:17:42.664Z,63.48
2018-03-16T05:18:42.644Z,63.29
2018-03-16T05:19:42.619Z,63.57
2018-03-16T05:20:42.337Z,63.29
2018-03-16T05:21:42.580Z,63.48
2018-03-16T05:22:42.300Z,63.57
2018-03-16T05:23:42.547Z,63.29
2018-03-16T05:24:42.517Z,63.48
2018-03-16T05:25:42.505Z,63.48
2018-03-16T05:26:42.481Z,63.67
2018-03-16T05:27:42.195Z,63.86
2018-03-16T05:28:42.442Z,63.76
2018-03-16T05:29:42.418Z,63.67
2018-03-16T05:30:42.426Z,63.67
2018-03-16T05:31:42.115Z,63.76
2018-03-16T05:32:42.365Z,63.86
2018-03-16T05:33:42.403Z,63.86
2018-03-16T05:34:42.054Z,63.95
2018-03-16T05:35:42.038Z,63.95
2018-03-16T05:36:42.011Z,63.86
2018-03-16T05:37:42.257Z,63.76
2018-03-16T05:38:41.971Z,63.76
2018-03-16T05:39:41.950Z,63.76
2018-03-16T05:40:41.945Z,63.67
2018-03-16T05:41:41.910Z,63.86
2018-03-16T05:42:42.163Z,64.33
2018-03-16T05:43:41.872Z,64.14
2018-03-16T05:44:41.850Z,64.33
2018-03-16T05:45:42.100Z,64.24
2018-03-16T05:46:41.810Z,63.95
2018-03-16T05:47:42.260Z,64.24
2018-03-16T05:48:41.768Z,63.95
2018-03-16T05:49:41.752Z,63.95
2018-03-16T05:50:41.729Z,64.33
2018-03-16T05:51:41.979Z,64.05
2018-03-16T05:52:41.951Z,64.14
2018-03-16T05:53:41.931Z,63.86
2018-03-16T05:54:41.916Z,63.76
2018-03-16T05:55:41.892Z,63.86
2018-03-16T05:56:41.609Z,64.71
2018-03-16T05:57:41.852Z,64.14
2018-03-16T05:58:41.831Z,63.86
2018-03-16T05:59:41.545Z,63.95
2018-03-16T06:00:41.571Z,64.14
2018-03-16T06:01:41.507Z,64.24
2018-03-16T06:02:41.486Z,64.05
2018-03-16T06:03:41.730Z,64.71
2018-03-16T06:04:41.447Z,65.19
2018-03-16T06:05:41.709Z,64.52
2018-03-16T06:06:41.671Z,64.81
2018-03-16T06:07:41.648Z,64.62
2018-03-16T06:08:41.628Z,65.47
2018-03-16T06:09:41.614Z,65
2018-03-16T06:10:41.336Z,65.28
2018-03-16T06:11:41.575Z,65
2018-03-16T06:12:41.293Z,64.71
2018-03-16T06:13:41.260Z,65.19
2018-03-16T06:14:41.507Z,65.28
2018-03-16T06:15:41.217Z,64.81
2018-03-16T06:16:41.467Z,64.81
2018-03-16T06:17:41.448Z,64.9
2018-03-16T06:18:41.438Z,64.9
2018-03-16T06:19:41.406Z,65.28
2018-03-16T06:20:41.119Z,65.28
2018-03-16T06:21:41.095Z,65.16
2018-03-16T06:22:41.341Z,64.81
2018-03-16T06:23:41.319Z,64.52
2018-03-16T06:24:41.296Z,65.16
2018-03-16T06:25:41.278Z,65.28
2018-03-16T06:26:41.261Z,65.56
2018-03-16T06:27:40.973Z,65.72
2018-03-16T06:28:41.218Z,65.75
2018-03-16T06:29:41.195Z,66.04
2018-03-16T06:30:41.184Z,65.66
2018-03-16T06:31:40.893Z,65.47
2018-03-16T06:32:41.140Z,65.75
2018-03-16T06:33:40.854Z,65.75
2018-03-16T06:34:41.095Z,65.85
2018-03-16T06:35:41.075Z,65.28
2018-03-16T06:36:40.790Z,65.19
2018-03-16T06:37:41.032Z,65.28
2018-03-16T06:38:41.014Z,64.97
2018-03-16T06:39:40.995Z,65.16
2018-03-16T06:40:40.711Z,65.47
2018-03-16T06:41:40.951Z,65.66
2018-03-16T06:42:40.928Z,65.85
2018-03-16T06:43:40.910Z,65
2018-03-16T06:44:41.189Z,66.14
2018-03-16T06:45:40.871Z,66.1
2018-03-16T06:46:40.849Z,66.04
2018-03-16T06:47:40.567Z,65.75
2018-03-16T06:48:40.540Z,66.14
2018-03-16T06:49:40.788Z,65.75
2018-03-16T06:50:40.766Z,65.95
2018-03-16T06:51:40.478Z,66.01
2018-03-16T06:52:40.460Z,66.48
2018-03-16T06:53:40.713Z,66.33
2018-03-16T06:54:40.684Z,66.01
2018-03-16T06:55:40.400Z,66.04
2018-03-16T06:56:40.653Z,66.04
2018-03-16T06:57:40.356Z,66.39
2018-03-16T06:58:40.340Z,66.8
2018-03-16T06:59:40.316Z,66.33
2018-03-16T07:00:40.294Z,66.23
2018-03-16T07:01:40.538Z,65.85
2018-03-16T07:02:40.518Z,65.95
2018-03-16T07:03:40.512Z,67.08
2018-03-16T07:04:40.216Z,67.85
2018-03-16T07:05:40.457Z,67.08
2018-03-16T07:06:40.174Z,66.61
2018-03-16T07:07:40.415Z,67.27
2018-03-16T07:08:40.130Z,66.01
2018-03-16T07:09:40.378Z,66.61
2018-03-16T07:10:40.086Z,66.86
2018-03-16T07:11:40.069Z,66.48
2018-03-16T07:12:40.318Z,66.29
2018-03-16T07:13:40.293Z,66.96
2018-03-16T07:14:40.009Z,66.48
2018-03-16T07:15:39.988Z,66.77
2018-03-16T07:16:39.966Z,67.05
2018-03-16T07:17:39.949Z,66.96
2018-03-16T07:18:40.194Z,66.96
2018-03-16T07:19:40.172Z,66.77
2018-03-16T07:20:39.883Z,66.86
2018-03-16T07:21:39.866Z,66.96
2018-03-16T07:22:40.106Z,66.77
2018-03-16T07:23:40.094Z,66.86
2018-03-16T07:24:40.083Z,66.77
2018-03-16T07:25:40.049Z,66.86
2018-03-16T07:26:39.759Z,66.67
2018-03-16T07:27:40.005Z,66.86
2018-03-16T07:28:39.985Z,66.58
2018-03-16T07:29:39.740Z,65.82
2018-03-16T07:30:39.945Z,66.77
2018-03-16T07:31:39.923Z,67.18
2018-03-16T07:32:39.903Z,66.86
2018-03-16T07:33:39.619Z,66.77
2018-03-16T07:34:39.862Z,66.96
2018-03-16T07:35:39.581Z,66.58
2018-03-16T07:36:39.823Z,66.86
2018-03-16T07:37:39.535Z,66.86
2018-03-16T07:38:39.518Z,67.33
2018-03-16T07:39:39.492Z,66.77
2018-03-16T07:40:39.744Z,65.72
2018-03-16T07:41:39.456Z,66.58
2018-03-16T07:42:39.701Z,66.86
2018-03-16T07:43:39.679Z,67.33
2018-03-16T07:44:39.659Z,67.14
2018-03-16T07:45:39.374Z,67.24
2018-03-16T07:46:39.619Z,68.19
2018-03-16T07:47:39.848Z,67.52
2018-03-16T07:48:39.314Z,67.52
2018-03-16T07:49:39.289Z,67.05
2018-03-16T07:50:39.270Z,67.33
2018-03-16T07:51:39.512Z,67.05
2018-03-16T07:52:39.495Z,66.58
2018-03-16T07:53:39.468Z,67.14
2018-03-16T07:54:39.188Z,67.33
2018-03-16T07:55:39.165Z,67.65
2018-03-16T07:56:39.151Z,66.71
2018-03-16T07:57:39.136Z,66.04
2018-03-16T07:58:39.104Z,66.96
2018-03-16T07:59:39.359Z,66.96
2018-03-16T08:00:39.073Z,66.8
2018-03-16T08:01:39.311Z,66.99
2018-03-16T08:02:39.021Z,67.43
2018-03-16T08:03:39.272Z,67.85
2018-03-16T08:04:38.982Z,67.18
2018-03-16T08:05:38.960Z,67.33
2018-03-16T08:06:38.942Z,68.19
2018-03-16T08:07:38.919Z,66.86
2018-03-16T08:08:38.898Z,67.18
2018-03-16T08:09:38.881Z,66.8
2018-03-16T08:10:39.125Z,66.67
2018-03-16T08:11:39.102Z,67.05
2018-03-16T08:12:38.820Z,66.52
2018-03-16T08:13:39.071Z,66.99
2018-03-16T08:14:38.780Z,66.89
2018-03-16T08:15:39.028Z,67.85
2018-03-16T08:16:38.739Z,68.7
2018-03-16T08:17:38.982Z,68.41
2018-03-16T08:18:38.701Z,67.75
2018-03-16T08:19:38.694Z,67.85
2018-03-16T08:20:38.660Z,68.98
2018-03-16T08:21:38.636Z,68.98
2018-03-16T08:22:38.616Z,68.89
2018-03-16T08:23:38.861Z,69.65
2018-03-16T08:24:38.582Z,69.55
2018-03-16T08:25:38.555Z,68.98
2018-03-16T08:26:38.800Z,67.85
2018-03-16T08:27:38.781Z,68.7
2018-03-16T08:28:38.762Z,68.79
2018-03-16T08:29:38.737Z,68.98
2018-03-16T08:30:38.455Z,69.27
2018-03-16T08:31:38.700Z,68.79
2018-03-16T08:32:38.679Z,69.17
2018-03-16T08:33:38.658Z,69.65
2018-03-16T08:34:38.370Z,69.46
2018-03-16T08:35:38.617Z,69.17
2018-03-16T08:36:38.598Z,68.23
2018-03-16T08:37:38.578Z,68.6
2018-03-16T08:38:38.556Z,69.17
2018-03-16T08:39:38.540Z,68.79
2018-03-16T08:40:38.253Z,69.93
2018-03-16T08:41:38.496Z,69.27
2018-03-16T08:43:50.276Z,69.55
2018-03-16T08:44:49.995Z,68.98
2018-03-16T08:45:50.239Z,69.84
2018-03-16T08:46:49.952Z,69.17
2018-03-16T08:47:50.205Z,69.65
2018-03-16T08:48:50.178Z,68.89
2018-03-16T08:49:50.214Z,68.79
2018-03-16T08:50:50.139Z,70.21
2018-03-16T08:51:50.125Z,69.74
2018-03-16T08:52:50.100Z,68.89
2018-03-16T08:53:50.075Z,68.89
2018-03-16T08:54:49.792Z,68.79
2018-03-16T08:55:50.054Z,68.6
2018-03-16T08:56:49.762Z,68.04
2018-03-16T08:57:49.991Z,68.98
2018-03-16T08:58:49.984Z,69.27
2018-03-16T08:59:49.969Z,69.17
2018-03-16T09:00:49.669Z,67.65
2018-03-16T09:01:49.917Z,67.75
2018-03-16T09:02:49.636Z,68.23
2018-03-16T09:03:49.873Z,68.04
2018-03-16T09:04:49.859Z,68.32
2018-03-16T09:05:49.837Z,68.6
2018-03-16T09:06:49.815Z,69.17
2018-03-16T09:07:49.795Z,69.46
2018-03-16T09:08:49.535Z,70.21
2018-03-16T09:09:49.490Z,68.51
2018-03-16T09:10:49.470Z,68.41
2018-03-16T09:11:49.450Z,69.17
2018-03-16T09:12:49.433Z,68.7
2018-03-16T09:13:49.679Z,69.27
2018-03-16T09:14:49.661Z,68.7
2018-03-16T09:15:49.383Z,69.08
2018-03-16T09:16:49.357Z,67.75
2018-03-16T09:17:49.598Z,68.04
2018-03-16T09:18:49.580Z,68.23
2018-03-16T09:19:49.558Z,68.51
2018-03-16T09:20:49.540Z,68.7
2018-03-16T09:21:49.253Z,68.98
2018-03-16T09:22:49.498Z,68.04
2018-03-16T09:23:49.219Z,67.85
2018-03-16T09:24:49.194Z,67.94
2018-03-16T09:25:49.445Z,68.41
2018-03-16T09:26:49.156Z,67.85
2018-03-16T09:27:49.410Z,68.04
2018-03-16T09:28:49.116Z,67.85
2018-03-16T09:29:49.396Z,67.5
2018-03-16T09:30:49.346Z,67.12
2018-03-16T09:31:49.326Z,66.64
2018-03-16T09:32:49.037Z,67.59
2018-03-16T09:33:49.017Z,67.4
2018-03-16T09:34:49.017Z,68.26
2018-03-16T09:35:49.242Z,68.35
2018-03-16T09:36:48.959Z,67.12
2018-03-16T09:37:49.203Z,67.59
2018-03-16T09:38:48.919Z,68.07
2018-03-16T09:39:49.166Z,67.69
2018-03-16T09:40:49.153Z,67.69
2018-03-16T09:41:49.142Z,68.35
2018-03-16T09:42:49.113Z,68.16
2018-03-16T09:43:48.824Z,68.73
2018-03-16T09:44:49.079Z,69.11
2018-03-16T09:45:49.050Z,68.98
2018-03-16T09:46:49.037Z,69.36
2018-03-16T09:47:49.219Z,69.46
2018-03-16T09:48:48.728Z,68.79
2018-03-16T09:49:48.974Z,68.89
2018-03-16T09:50:48.684Z,68.89
2018-03-16T09:51:48.669Z,68.89
2018-03-16T09:52:48.652Z,70.12
2018-03-16T09:53:48.896Z,70.31
2018-03-16T09:54:48.879Z,71.07
2018-03-16T09:55:48.591Z,71.26
2018-03-16T09:56:48.571Z,70.92
2018-03-16T09:57:48.593Z,71.36
2018-03-16T09:58:48.532Z,69.78
2018-03-16T09:59:48.782Z,70.73
2018-03-16T10:00:48.757Z,70.44
2018-03-16T10:01:48.739Z,70.03
2018-03-16T10:02:48.721Z,70.5
2018-03-16T10:03:48.434Z,70.03
2018-03-16T10:04:48.415Z,70.69
2018-03-16T10:05:48.660Z,70.21
2018-03-16T10:06:48.642Z,70.69
2018-03-16T10:07:48.357Z,71.92
2018-03-16T10:08:48.341Z,72.59
2018-03-16T10:09:48.584Z,73.63
2018-03-16T10:10:48.566Z,73.25
2018-03-16T10:11:48.552Z,72.68
2018-03-16T10:12:48.525Z,72.59
2018-03-16T10:13:48.509Z,71.92
2018-03-16T10:14:48.484Z,72.88
2018-03-16T10:15:48.202Z,72.78
2018-03-16T10:16:48.454Z,72.78
2018-03-16T10:17:48.238Z,72.4
2018-03-16T10:18:48.406Z,72.02
2018-03-16T10:19:48.124Z,72.3
2018-03-16T10:20:48.368Z,72.59
2018-03-16T10:21:48.079Z,73.92
2018-03-16T10:22:48.334Z,74.11
2018-03-16T10:23:48.308Z,73.54
2018-03-16T10:24:48.023Z,72.97
2018-03-16T10:25:48.004Z,73.07
2018-03-16T10:26:48.249Z,73.16
2018-03-16T10:27:47.966Z,73.72
2018-03-16T10:28:48.213Z,74.58
2018-03-16T10:29:47.926Z,74.58
2018-03-16T10:30:47.906Z,73.92
2018-03-16T10:31:48.156Z,73.63
2018-03-16T10:32:47.864Z,73.72
2018-03-16T10:33:48.125Z,74.58
2018-03-16T10:34:47.832Z,72.78
2018-03-16T10:35:48.074Z,72.3
2018-03-16T10:36:47.791Z,73.72
2018-03-16T10:37:48.034Z,74.11
2018-03-16T10:38:47.749Z,74.39
2018-03-16T10:39:47.996Z,73.72
2018-03-16T10:40:48.013Z,72.88
2018-03-16T10:41:47.695Z,71.73
2018-03-16T10:42:47.690Z,72.3
2018-03-16T10:43:47.914Z,72.11
2018-03-16T10:44:47.901Z,73.07
2018-03-16T10:45:47.879Z,73.72
2018-03-16T10:46:47.865Z,73.72
2018-03-16T10:47:47.842Z,73.92
2018-03-16T10:48:47.576Z,74.2
2018-03-16T10:49:47.800Z,75.05
2018-03-16T10:50:47.781Z,75.72
2018-03-16T10:51:47.761Z,76.76
2018-03-16T10:52:47.745Z,76.57
2018-03-16T10:53:47.725Z,76.29
2018-03-16T10:54:47.703Z,75.34
2018-03-16T10:55:47.682Z,76.57
2018-03-16T10:56:47.400Z,74.39
2018-03-16T10:57:47.645Z,75.34
2018-03-16T10:58:47.636Z,75.53
2018-03-16T10:59:47.340Z,75.72
2018-03-16T11:00:47.592Z,75.34
2018-03-16T11:01:47.301Z,76.39
2018-03-16T11:02:47.549Z,74.77
2018-03-16T11:03:47.531Z,75.24
2018-03-16T11:04:47.239Z,75.34
2018-03-16T11:05:47.536Z,73.82
2018-03-16T11:06:47.201Z,74.39
2018-03-16T11:07:47.449Z,73.25
2018-03-16T11:08:47.173Z,74.01
2018-03-16T11:09:47.140Z,74.68
2018-03-16T11:10:47.405Z,76.01
2018-03-16T11:11:47.373Z,74.96
2018-03-16T11:12:47.365Z,73.35
2018-03-16T11:13:47.337Z,75.15
2018-03-16T11:14:47.310Z,74.68
2018-03-16T11:15:47.292Z,74.96
2018-03-16T11:16:47.281Z,76.57
2018-03-16T11:17:46.991Z,75.15
2018-03-16T11:18:47.238Z,74.87
2018-03-16T11:19:46.998Z,74.96
2018-03-16T11:20:47.195Z,75.81
2018-03-16T11:21:46.907Z,76.95
2018-03-16T11:22:47.154Z,77.33
2018-03-16T11:23:47.141Z,75.24
2018-03-16T11:24:47.011Z,76.67
2018-03-16T11:25:47.095Z,76.76
2018-03-16T11:26:46.813Z,76.57
2018-03-16T11:27:47.133Z,76.67
2018-03-16T11:28:47.037Z,75.43
2018-03-16T11:29:47.017Z,76.29
2018-03-16T11:30:46.994Z,75.62
2018-03-16T11:31:46.983Z,76.67
2018-03-16T11:32:46.959Z,76.95
2018-03-16T11:33:46.938Z,77.14
2018-03-16T11:34:46.653Z,77.14
2018-03-16T11:35:46.904Z,77.52
2018-03-16T11:36:46.877Z,77.24
2018-03-16T11:37:46.602Z,77.14
2018-03-16T11:38:46.838Z,76.67
2018-03-16T11:39:46.822Z,76.67
2018-03-16T11:40:46.798Z,77.43
2018-03-16T11:41:46.517Z,77.81
2018-03-16T11:42:46.497Z,76.86
2018-03-16T11:43:46.476Z,78
2018-03-16T11:44:46.731Z,78.38
2018-03-16T11:45:46.433Z,76.57
2018-03-16T11:46:46.683Z,77.52
2018-03-16T11:47:46.798Z,78.47
2018-03-16T11:48:46.640Z,77.9
2018-03-16T11:49:46.616Z,78.95
2018-03-16T11:50:46.597Z,77.24
2018-03-16T11:51:46.580Z,77.71
2018-03-16T11:52:46.562Z,78.85
2018-03-16T11:53:46.601Z,79.71
2018-03-16T11:54:46.255Z,78.66
2018-03-16T11:55:46.501Z,78.66
2018-03-16T11:56:46.541Z,80.46
2018-03-16T11:57:46.473Z,80.75
2018-03-16T11:58:46.446Z,80.46
2018-03-16T11:59:46.418Z,77.81
2018-03-16T12:00:46.135Z,78
2018-03-16T12:01:46.116Z,77.14
2018-03-16T12:02:46.365Z,76.95
2018-03-16T12:03:46.073Z,75.05
2018-03-16T12:04:46.055Z,74.3
2018-03-16T12:05:46.857Z,75.43
2018-03-16T12:06:46.111Z,75.05
2018-03-16T12:07:45.999Z,75.81
2018-03-16T12:08:46.104Z,74.77
2018-03-16T12:09:46.219Z,75.53
2018-03-16T12:10:45.960Z,74.68
2018-03-16T12:11:46.179Z,75.05
2018-03-16T12:12:45.897Z,74.77
2018-03-16T12:13:45.873Z,76.76
2018-03-16T12:14:45.859Z,75.72
2018-03-16T12:15:46.100Z,73.63
2018-03-16T12:16:45.817Z,73.35
2018-03-16T12:17:46.061Z,75.15
2018-03-16T12:18:45.776Z,75.34
2018-03-16T12:19:45.755Z,75.62
2018-03-16T12:20:46.000Z,75.4
2018-03-16T12:21:45.734Z,75.34
2018-03-16T12:22:45.960Z,76.29
2018-03-16T12:23:45.939Z,75.05
2018-03-16T12:24:45.921Z,74.2
2018-03-16T12:25:45.642Z,73.54
2018-03-16T12:26:45.984Z,73.82
2018-03-16T12:27:45.645Z,72.78
2018-03-16T12:28:49.888Z,73.82
2018-03-16T12:29:45.867Z,73.35
2018-03-16T12:30:45.874Z,72.59
2018-03-16T12:31:45.793Z,73.16
2018-03-16T12:32:45.502Z,75.43
2018-03-16T12:33:45.744Z,74.2
2018-03-16T12:34:45.459Z,73.82
2018-03-16T12:35:45.701Z,72.84
2018-03-16T12:36:45.729Z,74.77
2018-03-16T12:37:45.399Z,75.21
2018-03-16T12:38:45.377Z,73.79
2018-03-16T12:39:45.619Z,73.6
2018-03-16T12:40:45.598Z,73.6
2018-03-16T12:41:45.315Z,72.93
2018-03-16T12:42:45.292Z,72.93
2018-03-16T12:43:45.276Z,74.64
2018-03-16T12:44:45.255Z,74.58
2018-03-16T12:45:45.497Z,73.41
2018-03-16T12:46:45.477Z,72.4
2018-03-16T12:47:45.462Z,72.88
2018-03-16T12:48:45.174Z,72.78
2018-03-16T12:49:45.417Z,71.83
2018-03-16T12:50:45.412Z,72.21
2018-03-16T12:51:45.116Z,72.97
2018-03-16T12:52:45.098Z,72.3
2018-03-16T12:53:45.342Z,71.73
2018-03-16T12:54:45.317Z,73.07
2018-03-16T12:55:45.295Z,72.3
2018-03-16T12:56:45.015Z,74.01